sensor_id;sensor_type;location;lat;lon;timestamp;P1;durP1;ratioP1;P2;durP2;ratioP2
78622;SDS011;67943;54.412;9.502;2023-04-01T00:00:04;37.45;;;15.23;;
78622;SDS011;67943;54.412;9.502;2023-04-01T00:05:08;35.28;;;15.07;;
78622;SDS011;67943;54.412;9.502;2023-04-01T00:10:11;35.65;;;13.38;;
78622;SDS011;67943;54.412;9.502;2023-04-01T00:15:13;28.08;;;14.27;;
78622;SDS011;67943;54.412;9.502;2023-04-01T00:20:17;25.73;;;11.73;;
78622;SDS011;67943;54.412;9.502;2023-04-01T00:25:18;22.90;;;11.27;;
78622;SDS011;67943;54.412;9.502;2023-04-01T00:30:20;16.77;;;8.50;;
78622;SDS011;67943;54.412;9.502;2023-04-01T00:35:22;16.08;;;7.75;;
78622;SDS011;67943;54.412;9.502;2023-04-01T00:40:25;12.98;;;6.65;;
78622;SDS011;67943;54.412;9.502;2023-04-01T00:45:33;10.20;;;5.25;;
78622;SDS011;67943;54.412;9.502;2023-04-01T00:50:38;12.88;;;5.43;;
78622;SDS011;67943;54.412;9.502;2023-04-01T00:55:41;10.50;;;5.43;;
78622;SDS011;67943;54.412;9.502;2023-04-01T01:00:47;7.38;;;4.38;;
78622;SDS011;67943;54.412;9.502;2023-04-01T01:05:55;9.40;;;4.25;;
78622;SDS011;67943;54.412;9.502;2023-04-01T01:11:08;8.18;;;4.78;;
78622;SDS011;67943;54.412;9.502;2023-04-01T01:16:12;9.75;;;5.38;;
78622;SDS011;67943;54.412;9.502;2023-04-01T01:21:30;11.75;;;6.03;;
78622;SDS011;67943;54.412;9.502;2023-04-01T01:27:00;9.10;;;4.80;;
78622;SDS011;67943;54.412;9.502;2023-04-01T01:32:07;8.85;;;4.60;;
78622;SDS011;67943;54.412;9.502;2023-04-01T01:37:20;10.60;;;4.35;;
78622;SDS011;67943;54.412;9.502;2023-04-01T01:42:26;8.80;;;4.25;;
78622;SDS011;67943;54.412;9.502;2023-04-01T01:47:29;7.88;;;4.35;;
78622;SDS011;67943;54.412;9.502;2023-04-01T01:52:32;11.55;;;5.32;;
78622;SDS011;67943;54.412;9.502;2023-04-01T01:57:34;6.85;;;3.90;;
78622;SDS011;67943;54.412;9.502;2023-04-01T02:02:39;7.63;;;4.13;;
78622;SDS011;67943;54.412;9.502;2023-04-01T02:07:42;7.80;;;3.90;;
78622;SDS011;67943;54.412;9.502;2023-04-01T02:12:47;7.57;;;3.63;;
78622;SDS011;67943;54.412;9.502;2023-04-01T02:17:52;9.38;;;3.45;;
78622;SDS011;67943;54.412;9.502;2023-04-01T02:22:55;6.45;;;3.13;;
78622;SDS011;67943;54.412;9.502;2023-04-01T02:27:59;6.80;;;3.00;;
78622;SDS011;67943;54.412;9.502;2023-04-01T02:33:02;7.75;;;2.92;;
78622;SDS011;67943;54.412;9.502;2023-04-01T02:38:06;4.35;;;2.15;;
78622;SDS011;67943;54.412;9.502;2023-04-01T02:43:08;4.80;;;2.20;;
78622;SDS011;67943;54.412;9.502;2023-04-01T02:48:09;8.48;;;2.10;;
78622;SDS011;67943;54.412;9.502;2023-04-01T02:53:14;5.85;;;1.73;;
78622;SDS011;67943;54.412;9.502;2023-04-01T02:58:15;3.00;;;1.40;;
78622;SDS011;67943;54.412;9.502;2023-04-01T03:03:17;4.35;;;1.92;;
78622;SDS011;67943;54.412;9.502;2023-04-01T03:08:20;2.78;;;1.20;;
78622;SDS011;67943;54.412;9.502;2023-04-01T03:13:21;3.70;;;1.30;;
78622;SDS011;67943;54.412;9.502;2023-04-01T03:18:23;4.00;;;1.40;;
78622;SDS011;67943;54.412;9.502;2023-04-01T03:23:25;5.53;;;1.55;;
78622;SDS011;67943;54.412;9.502;2023-04-01T03:28:27;2.45;;;0.90;;
78622;SDS011;67943;54.412;9.502;2023-04-01T03:33:28;4.50;;;1.40;;
78622;SDS011;67943;54.412;9.502;2023-04-01T03:38:31;5.00;;;1.23;;
78622;SDS011;67943;54.412;9.502;2023-04-01T03:43:33;2.55;;;0.88;;
78622;SDS011;67943;54.412;9.502;2023-04-01T03:48:34;1.48;;;1.00;;
78622;SDS011;67943;54.412;9.502;2023-04-01T03:53:37;2.15;;;0.98;;
78622;SDS011;67943;54.412;9.502;2023-04-01T03:58:39;4.75;;;1.08;;
78622;SDS011;67943;54.412;9.502;2023-04-01T04:03:40;5.72;;;1.55;;
78622;SDS011;67943;54.412;9.502;2023-04-01T04:08:43;5.28;;;1.23;;
78622;SDS011;67943;54.412;9.502;2023-04-01T04:13:45;4.65;;;1.30;;
78622;SDS011;67943;54.412;9.502;2023-04-01T04:18:47;3.08;;;1.40;;
78622;SDS011;67943;54.412;9.502;2023-04-01T04:23:50;4.38;;;1.60;;
78622;SDS011;67943;54.412;9.502;2023-04-01T04:28:53;3.97;;;1.70;;
78622;SDS011;67943;54.412;9.502;2023-04-01T04:33:55;2.80;;;1.20;;
78622;SDS011;67943;54.412;9.502;2023-04-01T04:38:58;3.50;;;1.23;;
78622;SDS011;67943;54.412;9.502;2023-04-01T04:44:02;4.30;;;1.38;;
78622;SDS011;67943;54.412;9.502;2023-04-01T04:49:03;7.65;;;1.23;;
78622;SDS011;67943;54.412;9.502;2023-04-01T04:54:06;2.20;;;0.90;;
78622;SDS011;67943;54.412;9.502;2023-04-01T04:59:08;1.40;;;0.75;;
78622;SDS011;67943;54.412;9.502;2023-04-01T05:04:09;2.75;;;0.80;;
78622;SDS011;67943;54.412;9.502;2023-04-01T05:09:12;1.67;;;0.80;;
78622;SDS011;67943;54.412;9.502;2023-04-01T05:14:14;3.25;;;0.88;;
78622;SDS011;67943;54.412;9.502;2023-04-01T05:19:16;1.40;;;0.65;;
78622;SDS011;67943;54.412;9.502;2023-04-01T05:24:19;1.10;;;0.60;;
78622;SDS011;67943;54.412;9.502;2023-04-01T05:29:20;1.15;;;0.60;;
78622;SDS011;67943;54.412;9.502;2023-04-01T05:34:22;1.35;;;0.80;;
78622;SDS011;67943;54.412;9.502;2023-04-01T05:39:24;0.98;;;0.80;;
78622;SDS011;67943;54.412;9.502;2023-04-01T05:44:26;1.40;;;0.70;;
78622;SDS011;67943;54.412;9.502;2023-04-01T05:54:30;2.83;;;1.00;;
78622;SDS011;67943;54.412;9.502;2023-04-01T05:59:32;2.75;;;1.20;;
78622;SDS011;67943;54.412;9.502;2023-04-01T06:04:37;4.00;;;1.20;;
78622;SDS011;67943;54.412;9.502;2023-04-01T06:09:41;2.80;;;1.13;;
78622;SDS011;67943;54.412;9.502;2023-04-01T06:14:45;2.75;;;1.45;;
78622;SDS011;67943;54.412;9.502;2023-04-01T06:19:57;2.72;;;1.02;;
78622;SDS011;67943;54.412;9.502;2023-04-01T06:25:12;3.70;;;1.10;;
78622;SDS011;67943;54.412;9.502;2023-04-01T06:30:38;4.00;;;1.38;;
78622;SDS011;67943;54.412;9.502;2023-04-01T06:35:56;3.17;;;1.20;;
78622;SDS011;67943;54.412;9.502;2023-04-01T06:41:21;3.95;;;1.25;;
78622;SDS011;67943;54.412;9.502;2023-04-01T06:46:32;4.78;;;1.23;;
78622;SDS011;67943;54.412;9.502;2023-04-01T06:51:45;3.33;;;1.35;;
78622;SDS011;67943;54.412;9.502;2023-04-01T06:56:57;2.53;;;1.20;;
78622;SDS011;67943;54.412;9.502;2023-04-01T07:02:04;4.22;;;1.30;;
78622;SDS011;67943;54.412;9.502;2023-04-01T07:07:19;3.28;;;1.08;;
78622;SDS011;67943;54.412;9.502;2023-04-01T07:12:28;3.58;;;1.05;;
78622;SDS011;67943;54.412;9.502;2023-04-01T07:17:38;1.73;;;1.08;;
78622;SDS011;67943;54.412;9.502;2023-04-01T07:22:43;5.20;;;1.50;;
78622;SDS011;67943;54.412;9.502;2023-04-01T07:27:48;4.90;;;1.50;;
78622;SDS011;67943;54.412;9.502;2023-04-01T07:32:51;3.78;;;1.48;;
78622;SDS011;67943;54.412;9.502;2023-04-01T07:38:05;4.80;;;1.70;;
78622;SDS011;67943;54.412;9.502;2023-04-01T07:48:45;4.65;;;1.60;;
78622;SDS011;67943;54.412;9.502;2023-04-01T07:53:53;6.15;;;1.90;;
78622;SDS011;67943;54.412;9.502;2023-04-01T07:59:08;6.70;;;2.08;;
78622;SDS011;67943;54.412;9.502;2023-04-01T08:04:22;7.03;;;1.75;;
78622;SDS011;67943;54.412;9.502;2023-04-01T08:09:31;4.05;;;1.63;;
78622;SDS011;67943;54.412;9.502;2023-04-01T08:14:46;6.10;;;1.57;;
78622;SDS011;67943;54.412;9.502;2023-04-01T08:20:01;4.93;;;1.83;;
78622;SDS011;67943;54.412;9.502;2023-04-01T08:25:14;5.18;;;1.95;;
78622;SDS011;67943;54.412;9.502;2023-04-01T08:30:23;6.53;;;2.10;;
78622;SDS011;67943;54.412;9.502;2023-04-01T08:35:27;7.32;;;2.42;;
78622;SDS011;67943;54.412;9.502;2023-04-01T08:40:42;8.05;;;2.88;;
78622;SDS011;67943;54.412;9.502;2023-04-01T08:46:05;7.20;;;2.97;;
78622;SDS011;67943;54.412;9.502;2023-04-01T08:51:34;7.57;;;3.25;;
78622;SDS011;67943;54.412;9.502;2023-04-01T08:56:56;6.78;;;3.17;;
78622;SDS011;67943;54.412;9.502;2023-04-01T09:02:13;7.07;;;2.97;;
78622;SDS011;67943;54.412;9.502;2023-04-01T09:07:35;11.20;;;3.85;;
78622;SDS011;67943;54.412;9.502;2023-04-01T09:12:50;10.52;;;4.15;;
78622;SDS011;67943;54.412;9.502;2023-04-01T09:18:06;15.65;;;4.88;;
78622;SDS011;67943;54.412;9.502;2023-04-01T09:23:24;14.90;;;4.53;;
78622;SDS011;67943;54.412;9.502;2023-04-01T09:28:34;14.45;;;3.88;;
78622;SDS011;67943;54.412;9.502;2023-04-01T09:39:34;14.00;;;4.55;;
78622;SDS011;67943;54.412;9.502;2023-04-01T09:44:40;14.00;;;4.78;;
78622;SDS011;67943;54.412;9.502;2023-04-01T09:49:57;17.05;;;5.53;;
78622;SDS011;67943;54.412;9.502;2023-04-01T09:55:21;12.65;;;5.25;;
78622;SDS011;67943;54.412;9.502;2023-04-01T10:01:03;14.65;;;4.95;;
78622;SDS011;67943;54.412;9.502;2023-04-01T10:23:23;16.45;;;5.63;;
78622;SDS011;67943;54.412;9.502;2023-04-01T10:40:01;12.13;;;4.88;;
78622;SDS011;67943;54.412;9.502;2023-04-01T10:45:38;10.43;;;4.70;;
78622;SDS011;67943;54.412;9.502;2023-04-01T10:56:40;13.18;;;5.55;;
78622;SDS011;67943;54.412;9.502;2023-04-01T11:01:56;11.68;;;4.78;;
78622;SDS011;67943;54.412;9.502;2023-04-01T11:07:39;10.85;;;4.50;;
78622;SDS011;67943;54.412;9.502;2023-04-01T11:13:15;13.82;;;5.60;;
78622;SDS011;67943;54.412;9.502;2023-04-01T11:18:53;16.75;;;5.55;;
78622;SDS011;67943;54.412;9.502;2023-04-01T11:24:18;15.77;;;5.70;;
78622;SDS011;67943;54.412;9.502;2023-04-01T11:29:38;17.85;;;5.68;;
78622;SDS011;67943;54.412;9.502;2023-04-01T11:35:01;10.70;;;4.60;;
78622;SDS011;67943;54.412;9.502;2023-04-01T11:40:25;11.45;;;4.50;;
78622;SDS011;67943;54.412;9.502;2023-04-01T11:45:36;13.73;;;4.68;;
78622;SDS011;67943;54.412;9.502;2023-04-01T11:50:45;10.85;;;4.18;;
78622;SDS011;67943;54.412;9.502;2023-04-01T11:56:02;14.10;;;4.45;;
78622;SDS011;67943;54.412;9.502;2023-04-01T12:01:23;10.52;;;3.67;;
78622;SDS011;67943;54.412;9.502;2023-04-01T12:06:32;16.73;;;4.50;;
78622;SDS011;67943;54.412;9.502;2023-04-01T12:11:44;10.77;;;3.65;;
78622;SDS011;67943;54.412;9.502;2023-04-01T12:17:00;9.75;;;3.72;;
78622;SDS011;67943;54.412;9.502;2023-04-01T12:22:22;11.15;;;3.95;;
78622;SDS011;67943;54.412;9.502;2023-04-01T12:32:47;10.55;;;3.25;;
78622;SDS011;67943;54.412;9.502;2023-04-01T12:37:58;12.13;;;3.28;;
78622;SDS011;67943;54.412;9.502;2023-04-01T12:43:27;6.97;;;3.15;;
78622;SDS011;67943;54.412;9.502;2023-04-01T12:54:33;18.35;;;4.40;;
78622;SDS011;67943;54.412;9.502;2023-04-01T13:00:08;9.77;;;3.33;;
78622;SDS011;67943;54.412;9.502;2023-04-01T13:05:27;9.70;;;3.25;;
78622;SDS011;67943;54.412;9.502;2023-04-01T13:10:58;7.63;;;3.55;;
78622;SDS011;67943;54.412;9.502;2023-04-01T13:16:10;8.02;;;3.45;;
78622;SDS011;67943;54.412;9.502;2023-04-01T13:21:19;11.85;;;3.60;;
78622;SDS011;67943;54.412;9.502;2023-04-01T13:26:28;9.10;;;3.17;;
78622;SDS011;67943;54.412;9.502;2023-04-01T13:31:40;7.80;;;3.25;;
78622;SDS011;67943;54.412;9.502;2023-04-01T13:36:56;12.48;;;3.60;;
78622;SDS011;67943;54.412;9.502;2023-04-01T13:42:10;9.20;;;3.25;;
78622;SDS011;67943;54.412;9.502;2023-04-01T13:47:27;10.82;;;2.97;;
78622;SDS011;67943;54.412;9.502;2023-04-01T13:52:55;8.65;;;3.30;;
78622;SDS011;67943;54.412;9.502;2023-04-01T13:58:17;17.10;;;3.65;;
78622;SDS011;67943;54.412;9.502;2023-04-01T14:03:31;4.85;;;2.55;;
78622;SDS011;67943;54.412;9.502;2023-04-01T14:14:18;7.90;;;2.60;;
78622;SDS011;67943;54.412;9.502;2023-04-01T14:19:31;7.13;;;2.90;;
78622;SDS011;67943;54.412;9.502;2023-04-01T14:25:01;7.45;;;2.83;;
78622;SDS011;67943;54.412;9.502;2023-04-01T14:30:30;6.38;;;2.47;;
78622;SDS011;67943;54.412;9.502;2023-04-01T14:35:44;7.47;;;2.58;;
78622;SDS011;67943;54.412;9.502;2023-04-01T14:40:54;6.35;;;2.13;;
78622;SDS011;67943;54.412;9.502;2023-04-01T14:46:08;6.70;;;2.40;;
78622;SDS011;67943;54.412;9.502;2023-04-01T14:51:15;8.35;;;2.20;;
78622;SDS011;67943;54.412;9.502;2023-04-01T15:01:53;11.55;;;2.38;;
78622;SDS011;67943;54.412;9.502;2023-04-01T15:07:04;9.98;;;2.42;;
78622;SDS011;67943;54.412;9.502;2023-04-01T15:12:18;6.95;;;2.45;;
78622;SDS011;67943;54.412;9.502;2023-04-01T15:17:32;11.07;;;1.98;;
78622;SDS011;67943;54.412;9.502;2023-04-01T15:22:48;6.53;;;2.42;;
78622;SDS011;67943;54.412;9.502;2023-04-01T15:27:59;8.82;;;2.35;;
78622;SDS011;67943;54.412;9.502;2023-04-01T15:33:13;10.68;;;3.22;;
78622;SDS011;67943;54.412;9.502;2023-04-01T15:38:29;8.93;;;1.90;;
78622;SDS011;67943;54.412;9.502;2023-04-01T15:43:40;8.00;;;1.88;;
78622;SDS011;67943;54.412;9.502;2023-04-01T15:48:48;5.72;;;1.90;;
78622;SDS011;67943;54.412;9.502;2023-04-01T15:59:53;9.73;;;2.33;;
78622;SDS011;67943;54.412;9.502;2023-04-01T16:05:09;8.88;;;2.13;;
78622;SDS011;67943;54.412;9.502;2023-04-01T16:10:30;6.43;;;1.95;;
78622;SDS011;67943;54.412;9.502;2023-04-01T16:15:39;11.05;;;2.38;;
78622;SDS011;67943;54.412;9.502;2023-04-01T16:20:51;4.82;;;1.80;;
78622;SDS011;67943;54.412;9.502;2023-04-01T16:25:59;8.52;;;2.17;;
78622;SDS011;67943;54.412;9.502;2023-04-01T16:31:07;5.20;;;1.65;;
78622;SDS011;67943;54.412;9.502;2023-04-01T16:36:17;7.28;;;1.95;;
78622;SDS011;67943;54.412;9.502;2023-04-01T16:41:28;7.03;;;2.25;;
78622;SDS011;67943;54.412;9.502;2023-04-01T16:46:33;5.97;;;1.75;;
78622;SDS011;67943;54.412;9.502;2023-04-01T16:51:44;5.00;;;1.88;;
78622;SDS011;67943;54.412;9.502;2023-04-01T16:56:50;4.88;;;1.75;;
78622;SDS011;67943;54.412;9.502;2023-04-01T17:01:57;6.95;;;1.70;;
78622;SDS011;67943;54.412;9.502;2023-04-01T17:07:18;10.07;;;2.00;;
78622;SDS011;67943;54.412;9.502;2023-04-01T17:12:25;4.40;;;1.55;;
78622;SDS011;67943;54.412;9.502;2023-04-01T17:17:35;7.30;;;2.40;;
78622;SDS011;67943;54.412;9.502;2023-04-01T17:22:49;6.53;;;1.70;;
78622;SDS011;67943;54.412;9.502;2023-04-01T17:27:55;9.98;;;1.88;;
78622;SDS011;67943;54.412;9.502;2023-04-01T17:33:10;5.15;;;1.88;;
78622;SDS011;67943;54.412;9.502;2023-04-01T17:38:44;3.78;;;1.35;;
78622;SDS011;67943;54.412;9.502;2023-04-01T17:44:02;4.90;;;1.60;;
78622;SDS011;67943;54.412;9.502;2023-04-01T17:49:19;4.35;;;1.58;;
78622;SDS011;67943;54.412;9.502;2023-04-01T17:54:30;6.47;;;1.50;;
78622;SDS011;67943;54.412;9.502;2023-04-01T17:59:39;6.65;;;1.52;;
78622;SDS011;67943;54.412;9.502;2023-04-01T18:04:55;11.30;;;2.05;;
78622;SDS011;67943;54.412;9.502;2023-04-01T18:10:22;4.68;;;1.40;;
78622;SDS011;67943;54.412;9.502;2023-04-01T18:15:30;6.28;;;1.73;;
78622;SDS011;67943;54.412;9.502;2023-04-01T18:20:37;5.18;;;1.58;;
78622;SDS011;67943;54.412;9.502;2023-04-01T18:25:48;4.75;;;1.55;;
78622;SDS011;67943;54.412;9.502;2023-04-01T18:30:55;5.88;;;1.17;;
78622;SDS011;67943;54.412;9.502;2023-04-01T18:36:09;3.50;;;1.27;;
78622;SDS011;67943;54.412;9.502;2023-04-01T18:41:22;6.47;;;1.40;;
78622;SDS011;67943;54.412;9.502;2023-04-01T18:51:38;5.15;;;1.40;;
78622;SDS011;67943;54.412;9.502;2023-04-01T18:56:47;4.28;;;1.50;;
78622;SDS011;67943;54.412;9.502;2023-04-01T19:01:51;5.75;;;1.55;;
78622;SDS011;67943;54.412;9.502;2023-04-01T19:07:02;2.90;;;1.50;;
78622;SDS011;67943;54.412;9.502;2023-04-01T19:12:34;7.35;;;1.70;;
78622;SDS011;67943;54.412;9.502;2023-04-01T19:17:47;4.95;;;1.52;;
78622;SDS011;67943;54.412;9.502;2023-04-01T19:28:42;4.35;;;1.50;;
78622;SDS011;67943;54.412;9.502;2023-04-01T19:33:58;4.88;;;1.63;;
78622;SDS011;67943;54.412;9.502;2023-04-01T19:39:13;7.85;;;1.55;;
78622;SDS011;67943;54.412;9.502;2023-04-01T19:44:31;4.90;;;1.60;;
78622;SDS011;67943;54.412;9.502;2023-04-01T19:49:45;7.63;;;2.30;;
78622;SDS011;67943;54.412;9.502;2023-04-01T19:54:55;5.35;;;1.40;;
78622;SDS011;67943;54.412;9.502;2023-04-01T20:00:05;7.13;;;1.60;;
78622;SDS011;67943;54.412;9.502;2023-04-01T20:05:31;7.57;;;1.90;;
78622;SDS011;67943;54.412;9.502;2023-04-01T20:10:42;6.93;;;1.73;;
78622;SDS011;67943;54.412;9.502;2023-04-01T20:15:59;5.45;;;1.30;;
78622;SDS011;67943;54.412;9.502;2023-04-01T20:21:05;7.97;;;1.35;;
78622;SDS011;67943;54.412;9.502;2023-04-01T20:26:19;4.43;;;1.25;;
78622;SDS011;67943;54.412;9.502;2023-04-01T20:31:26;6.32;;;1.45;;
78622;SDS011;67943;54.412;9.502;2023-04-01T20:36:34;5.38;;;1.30;;
78622;SDS011;67943;54.412;9.502;2023-04-01T20:41:45;6.93;;;1.33;;
78622;SDS011;67943;54.412;9.502;2023-04-01T20:46:59;8.52;;;1.23;;
78622;SDS011;67943;54.412;9.502;2023-04-01T20:52:17;5.75;;;1.30;;
78622;SDS011;67943;54.412;9.502;2023-04-01T20:57:27;4.47;;;1.33;;
78622;SDS011;67943;54.412;9.502;2023-04-01T21:02:43;6.20;;;1.30;;
78622;SDS011;67943;54.412;9.502;2023-04-01T21:07:53;4.18;;;1.23;;
78622;SDS011;67943;54.412;9.502;2023-04-01T21:13:03;5.93;;;1.27;;
78622;SDS011;67943;54.412;9.502;2023-04-01T21:18:22;5.25;;;1.48;;
78622;SDS011;67943;54.412;9.502;2023-04-01T21:23:48;7.15;;;1.48;;
78622;SDS011;67943;54.412;9.502;2023-04-01T21:29:08;5.25;;;1.13;;
78622;SDS011;67943;54.412;9.502;2023-04-01T21:34:34;4.03;;;1.00;;
78622;SDS011;67943;54.412;9.502;2023-04-01T21:39:51;5.53;;;1.17;;
78622;SDS011;67943;54.412;9.502;2023-04-01T21:45:19;9.13;;;1.33;;
78622;SDS011;67943;54.412;9.502;2023-04-01T21:50:41;5.25;;;1.10;;
78622;SDS011;67943;54.412;9.502;2023-04-01T21:56:00;3.03;;;0.98;;
78622;SDS011;67943;54.412;9.502;2023-04-01T22:01:17;4.68;;;1.40;;
78622;SDS011;67943;54.412;9.502;2023-04-01T22:06:30;5.07;;;1.27;;
78622;SDS011;67943;54.412;9.502;2023-04-01T22:11:49;6.55;;;1.40;;
78622;SDS011;67943;54.412;9.502;2023-04-01T22:17:02;5.80;;;1.23;;
78622;SDS011;67943;54.412;9.502;2023-04-01T22:22:16;3.22;;;1.05;;
78622;SDS011;67943;54.412;9.502;2023-04-01T22:27:24;4.85;;;1.50;;
78622;SDS011;67943;54.412;9.502;2023-04-01T22:32:32;4.50;;;1.10;;
78622;SDS011;67943;54.412;9.502;2023-04-01T22:37:40;5.05;;;0.95;;
78622;SDS011;67943;54.412;9.502;2023-04-01T22:42:53;3.28;;;1.30;;
78622;SDS011;67943;54.412;9.502;2023-04-01T22:48:01;3.55;;;1.25;;
78622;SDS011;67943;54.412;9.502;2023-04-01T22:53:26;6.15;;;1.55;;
78622;SDS011;67943;54.412;9.502;2023-04-01T22:58:41;8.05;;;1.45;;
78622;SDS011;67943;54.412;9.502;2023-04-01T23:03:48;3.03;;;1.27;;
78622;SDS011;67943;54.412;9.502;2023-04-01T23:08:55;6.22;;;1.27;;
78622;SDS011;67943;54.412;9.502;2023-04-01T23:14:07;5.10;;;1.40;;
78622;SDS011;67943;54.412;9.502;2023-04-01T23:19:32;5.72;;;1.02;;
78622;SDS011;67943;54.412;9.502;2023-04-01T23:24:40;6.20;;;1.77;;
78622;SDS011;67943;54.412;9.502;2023-04-01T23:29:48;7.28;;;1.50;;
78622;SDS011;67943;54.412;9.502;2023-04-01T23:34:50;4.45;;;1.35;;
78622;SDS011;67943;54.412;9.502;2023-04-01T23:39:55;5.35;;;1.15;;
78622;SDS011;67943;54.412;9.502;2023-04-01T23:44:58;5.88;;;1.15;;
78622;SDS011;67943;54.412;9.502;2023-04-01T23:50:03;4.97;;;0.98;;
78622;SDS011;67943;54.412;9.502;2023-04-01T23:55:14;3.22;;;1.00;;
